createdAt,value
2019-03-01T00:02:26.762Z,11.73
2019-03-01T00:05:34.860Z,12.30
2019-03-01T00:08:13.311Z,12.90
2019-03-01T00:11:13.066Z,13.30
2019-03-01T00:14:06.341Z,14.00
2019-03-01T00:16:58.991Z,13.67
2019-03-01T00:20:14.414Z,13.73
2019-03-01T00:23:12.489Z,15.20
2019-03-01T00:26:06.330Z,15.33
2019-03-01T00:29:24.718Z,15.70
2019-03-01T00:32:27.716Z,15.93
2019-03-01T00:35:20.790Z,15.60
2019-03-01T00:38:33.375Z,15.93
2019-03-01T00:41:30.121Z,16.03
2019-03-01T00:44:30.409Z,16.17
2019-03-01T00:46:57.913Z,16.63
2019-03-01T00:49:25.293Z,15.10
2019-03-01T00:51:52.723Z,16.57
2019-03-01T00:54:20.122Z,17.50
2019-03-01T00:56:47.510Z,16.87
2019-03-01T00:59:14.960Z,15.30
2019-03-01T01:01:42.360Z,14.93
2019-03-01T01:04:09.866Z,14.53
2019-03-01T01:06:37.321Z,15.77
2019-03-01T01:09:05.874Z,15.53
2019-03-01T01:11:33.309Z,16.47
2019-03-01T01:14:00.985Z,15.30
2019-03-01T01:16:28.378Z,15.43
2019-03-01T01:18:55.761Z,14.70
2019-03-01T01:21:23.692Z,12.27
2019-03-01T01:23:51.253Z,13.70
2019-03-01T01:26:18.638Z,11.67
2019-03-01T01:28:46.270Z,13.60
2019-03-01T01:31:13.767Z,15.90
2019-03-01T01:33:41.157Z,13.10
2019-03-01T01:36:08.597Z,17.40
2019-03-01T01:38:35.979Z,11.83
2019-03-01T01:41:03.574Z,15.80
2019-03-01T01:43:31.450Z,17.63
2019-03-01T01:45:58.839Z,15.60
2019-03-01T01:48:26.251Z,16.67
2019-03-01T01:50:53.721Z,16.17
2019-03-01T01:53:21.119Z,17.57
2019-03-01T01:55:48.506Z,18.33
2019-03-01T01:58:16.121Z,16.00
2019-03-01T02:00:43.524Z,16.80
2019-03-01T02:03:11.112Z,14.53
2019-03-01T02:05:38.615Z,14.30
2019-03-01T02:08:06.010Z,18.73
2019-03-01T02:10:33.403Z,15.37
2019-03-01T02:13:00.994Z,18.23
2019-03-01T02:15:28.398Z,17.93
2019-03-01T02:17:55.796Z,17.23
2019-03-01T02:20:23.372Z,12.40
2019-03-01T02:22:50.870Z,14.23
2019-03-01T02:25:18.264Z,12.23
2019-03-01T02:27:45.868Z,12.77
2019-03-01T02:30:16.136Z,14.70
2019-03-01T02:32:47.897Z,14.17
2019-03-01T02:35:22.764Z,17.60
2019-03-01T02:37:50.154Z,14.67
2019-03-01T02:40:37.114Z,13.10
2019-03-01T02:43:04.954Z,15.53
2019-03-01T02:45:32.552Z,15.30
2019-03-01T02:47:59.958Z,15.63
2019-03-01T02:50:27.427Z,15.67
2019-03-01T02:52:54.811Z,15.40
2019-03-01T02:55:22.215Z,13.80
2019-03-01T02:57:49.940Z,16.10
2019-03-01T03:00:19.434Z,13.73
2019-03-01T03:02:46.834Z,15.17
2019-03-01T03:05:14.850Z,16.10
2019-03-01T03:07:46.306Z,13.53
2019-03-01T03:10:13.791Z,16.30
2019-03-01T03:12:41.211Z,17.20
2019-03-01T03:15:09.226Z,16.30
2019-03-01T03:17:36.620Z,19.80
2019-03-01T03:20:04.767Z,17.77
2019-03-01T03:22:32.212Z,19.17
2019-03-01T03:24:59.634Z,13.60
2019-03-01T03:27:27.096Z,12.83
2019-03-01T03:29:54.515Z,16.90
2019-03-01T03:32:21.912Z,17.53
2019-03-01T03:34:49.367Z,16.60
2019-03-01T03:37:16.764Z,17.40
2019-03-01T03:39:44.163Z,17.67
2019-03-01T03:42:11.591Z,14.53
2019-03-01T03:44:39.375Z,16.20
2019-03-01T03:47:06.783Z,16.70
2019-03-01T03:49:34.444Z,16.10
2019-03-01T03:52:01.880Z,16.83
2019-03-01T03:54:29.263Z,17.20
2019-03-01T03:56:56.688Z,14.97
2019-03-01T03:59:24.101Z,15.90
2019-03-01T04:01:51.586Z,15.70
2019-03-01T04:04:19.383Z,16.23
2019-03-01T04:06:46.779Z,16.43
2019-03-01T04:09:14.172Z,17.37
2019-03-01T04:11:41.722Z,18.27
2019-03-01T04:14:09.107Z,19.13
2019-03-01T04:16:36.514Z,13.37
2019-03-01T04:19:03.948Z,15.30
2019-03-01T04:21:31.356Z,16.20
2019-03-01T04:23:58.753Z,16.43
2019-03-01T04:26:26.205Z,17.77
2019-03-01T04:28:53.612Z,15.53
2019-03-01T04:31:21.006Z,15.33
2019-03-01T04:33:48.714Z,22.07
2019-03-01T04:36:16.659Z,17.57
2019-03-01T04:38:44.058Z,17.30
2019-03-01T04:41:11.584Z,16.63
2019-03-01T04:43:39.290Z,12.87
2019-03-01T04:46:06.681Z,16.90
2019-03-01T04:48:34.306Z,15.90
2019-03-01T04:51:01.721Z,16.97
2019-03-01T04:53:29.115Z,19.23
2019-03-01T04:55:56.559Z,16.87
2019-03-01T04:58:23.951Z,16.00
2019-03-01T05:00:51.342Z,17.03
2019-03-01T05:03:18.778Z,14.73
2019-03-01T05:05:46.182Z,18.40
2019-03-01T05:08:13.574Z,17.17
2019-03-01T05:10:41.567Z,16.70
2019-03-01T05:13:08.972Z,16.43
2019-03-01T05:15:36.362Z,17.70
2019-03-01T05:18:04.163Z,15.20
2019-03-01T05:20:31.578Z,17.20
2019-03-01T05:22:58.962Z,15.57
2019-03-01T05:25:26.430Z,16.60
2019-03-01T05:27:53.802Z,16.70
2019-03-01T05:30:21.205Z,14.03
2019-03-01T05:32:48.686Z,18.53
2019-03-01T05:35:16.081Z,15.90
2019-03-01T05:37:43.486Z,13.30
2019-03-01T05:40:11.538Z,16.07
2019-03-01T05:42:39.990Z,15.03
2019-03-01T05:45:13.441Z,16.60
2019-03-01T05:47:40.859Z,18.47
2019-03-01T05:50:09.454Z,16.60
2019-03-01T05:52:36.854Z,15.70
2019-03-01T05:55:04.791Z,15.50
2019-03-01T05:57:32.467Z,15.80
2019-03-01T05:59:59.878Z,15.23
2019-03-01T06:02:59.215Z,12.97
2019-03-01T06:05:33.746Z,15.57
2019-03-01T06:08:52.047Z,15.80
2019-03-01T06:11:56.606Z,14.87
2019-03-01T06:14:58.665Z,13.87
2019-03-01T06:18:02.226Z,17.60
2019-03-01T06:21:11.259Z,16.03
2019-03-01T06:24:15.131Z,16.50
2019-03-01T06:27:36.470Z,14.13
2019-03-01T06:30:53.532Z,17.50
2019-03-01T06:33:50.987Z,14.90
2019-03-01T06:36:58.526Z,13.43
2019-03-01T06:40:20.507Z,13.50
2019-03-01T06:43:28.810Z,15.60
2019-03-01T06:46:23.546Z,13.73
2019-03-01T06:49:00.979Z,15.20
2019-03-01T06:51:31.153Z,14.27
2019-03-01T06:53:58.529Z,16.23
2019-03-01T06:56:26.034Z,15.73
2019-03-01T06:58:56.850Z,14.73
2019-03-01T07:01:32.194Z,14.60
2019-03-01T07:04:28.428Z,14.93
2019-03-01T07:06:55.865Z,15.30
2019-03-01T07:09:23.213Z,13.30
2019-03-01T07:11:50.625Z,16.20
2019-03-01T07:14:18.014Z,16.73
2019-03-01T07:16:45.398Z,14.63
2019-03-01T07:19:12.817Z,15.20
2019-03-01T07:21:40.219Z,12.83
2019-03-01T07:24:07.761Z,13.80
2019-03-01T07:26:35.589Z,14.53
2019-03-01T07:29:02.976Z,16.97
2019-03-01T07:31:30.355Z,14.50
2019-03-01T07:33:57.975Z,14.17
2019-03-01T07:36:25.363Z,16.00
2019-03-01T07:38:52.764Z,16.20
2019-03-01T07:41:20.192Z,15.30
2019-03-01T07:43:48.054Z,16.13
2019-03-01T07:46:15.438Z,14.40
2019-03-01T07:48:43.065Z,14.90
2019-03-01T07:51:10.453Z,12.40
2019-03-01T07:53:41.863Z,14.10
2019-03-01T07:56:07.184Z,14.47
2019-03-01T07:58:34.569Z,13.67
2019-03-01T08:01:01.973Z,12.93
2019-03-01T08:03:29.398Z,13.97
2019-03-01T08:05:56.798Z,11.70
2019-03-01T08:08:24.171Z,15.17
2019-03-01T08:10:53.507Z,15.33
2019-03-01T08:13:20.863Z,12.70
2019-03-01T08:15:48.250Z,15.30
2019-03-01T08:18:15.673Z,16.70
2019-03-01T08:20:43.076Z,15.87
2019-03-01T08:23:10.455Z,15.97
2019-03-01T08:25:37.871Z,14.80
2019-03-01T08:28:05.276Z,12.77
2019-03-01T08:30:32.658Z,11.47
2019-03-01T08:33:02.621Z,15.20
2019-03-01T08:35:32.069Z,16.07
2019-03-01T08:37:58.518Z,13.90
2019-03-01T08:40:26.026Z,13.17
2019-03-01T08:42:53.608Z,14.50
2019-03-01T08:45:21.243Z,14.40
2019-03-01T08:47:49.098Z,13.20
2019-03-01T08:50:17.563Z,14.37
2019-03-01T08:52:45.316Z,18.27
2019-03-01T08:55:14.278Z,14.10
2019-03-01T08:57:44.441Z,15.53
2019-03-01T09:00:16.610Z,20.10
2019-03-01T09:02:44.082Z,16.30
2019-03-01T09:05:11.579Z,14.73
2019-03-01T09:07:39.020Z,12.90
2019-03-01T09:10:08.053Z,13.77
2019-03-01T09:12:35.436Z,18.63
2019-03-01T09:15:04.492Z,24.70
2019-03-01T09:17:33.030Z,21.20
2019-03-01T09:20:01.189Z,15.27
2019-03-01T09:22:28.869Z,10.20
2019-03-01T09:24:56.310Z,13.30
2019-03-01T09:27:26.715Z,10.60
2019-03-01T09:29:52.939Z,11.37
2019-03-01T09:32:20.342Z,12.73
2019-03-01T09:34:50.314Z,12.90
2019-03-01T09:37:17.757Z,11.13
2019-03-01T09:39:45.151Z,12.00
2019-03-01T09:42:15.471Z,10.13
2019-03-01T09:44:41.778Z,10.73
2019-03-01T09:47:09.306Z,10.60
2019-03-01T09:49:36.690Z,10.20
2019-03-01T09:52:04.111Z,8.50
2019-03-01T09:54:31.650Z,8.80
2019-03-01T09:56:59.055Z,14.70
2019-03-01T09:59:26.478Z,14.57
2019-03-01T10:01:53.870Z,16.60
2019-03-01T10:04:21.311Z,13.40
2019-03-01T10:06:49.042Z,12.90
2019-03-01T10:09:16.409Z,10.20
2019-03-01T10:11:43.839Z,7.30
2019-03-01T10:14:11.478Z,6.80
2019-03-01T10:16:38.842Z,6.83
2019-03-01T10:19:06.242Z,6.10
2019-03-01T10:21:33.649Z,5.57
2019-03-01T10:24:01.034Z,4.90
2019-03-01T10:26:28.422Z,4.30
2019-03-01T10:28:56.138Z,4.97
2019-03-01T10:31:23.530Z,3.90
2019-03-01T10:33:50.905Z,3.30
2019-03-01T10:36:18.377Z,2.80
2019-03-01T10:38:45.769Z,4.77
2019-03-01T10:41:13.154Z,5.47
2019-03-01T10:43:40.579Z,3.40
2019-03-01T10:46:08.182Z,3.80
2019-03-01T10:48:35.566Z,5.00
2019-03-01T10:51:03.015Z,4.00
2019-03-01T10:53:30.398Z,4.03
2019-03-01T10:55:58.058Z,3.90
2019-03-01T10:58:25.487Z,4.37
2019-03-01T11:00:52.882Z,4.20
2019-03-01T11:03:20.276Z,3.30
2019-03-01T11:05:50.083Z,3.10
2019-03-01T11:08:17.463Z,3.23
2019-03-01T11:10:44.846Z,3.43
2019-03-01T11:13:12.537Z,4.80
2019-03-01T11:15:39.930Z,4.53
2019-03-01T11:18:07.366Z,4.40
2019-03-01T11:20:34.838Z,3.37
2019-03-01T11:23:02.240Z,3.57
2019-03-01T11:25:29.609Z,3.40
2019-03-01T11:27:57.191Z,3.93
2019-03-01T11:30:26.423Z,4.70
2019-03-01T11:32:53.802Z,3.60
2019-03-01T11:35:21.241Z,2.27
2019-03-01T11:37:48.962Z,3.83
2019-03-01T11:40:18.716Z,4.30
2019-03-01T11:42:46.251Z,3.63
2019-03-01T11:45:14.002Z,3.47
2019-03-01T11:47:41.664Z,3.70
2019-03-01T11:50:11.688Z,3.63
2019-03-01T11:52:39.082Z,3.47
2019-03-01T11:55:06.515Z,3.57
2019-03-01T11:57:33.931Z,3.30
2019-03-01T12:00:01.333Z,3.30
2019-03-01T12:02:28.706Z,3.60
2019-03-01T12:04:56.119Z,2.53
2019-03-01T12:07:23.502Z,3.00
2019-03-01T12:09:50.888Z,2.83
2019-03-01T12:12:18.386Z,3.03
2019-03-01T12:14:45.770Z,2.60
2019-03-01T12:17:13.166Z,2.27
2019-03-01T12:19:40.849Z,1.93
2019-03-01T12:22:16.712Z,2.67
2019-03-01T12:24:37.442Z,1.70
2019-03-01T12:27:05.079Z,2.00
2019-03-01T12:29:32.460Z,1.73
2019-03-01T12:31:59.846Z,2.30
2019-03-01T12:34:27.327Z,2.60
2019-03-01T12:36:54.706Z,1.80
2019-03-01T12:39:22.111Z,1.77
2019-03-01T12:41:49.563Z,1.87
2019-03-01T12:44:17.038Z,1.77
2019-03-01T12:46:44.429Z,1.47
2019-03-01T12:49:12.299Z,1.50
2019-03-01T12:51:39.695Z,2.50
2019-03-01T12:54:07.079Z,2.20
2019-03-01T12:56:34.510Z,2.40
2019-03-01T12:59:01.934Z,2.50
2019-03-01T13:01:29.361Z,2.60
2019-03-01T13:03:56.775Z,2.73
2019-03-01T13:06:24.169Z,2.80
2019-03-01T13:08:52.402Z,2.93
2019-03-01T13:11:19.974Z,2.30
2019-03-01T13:13:47.369Z,2.13
2019-03-01T13:16:14.750Z,2.63
2019-03-01T13:18:42.513Z,2.60
2019-03-01T13:21:12.908Z,3.27
2019-03-01T13:23:40.494Z,2.73
2019-03-01T13:26:08.540Z,3.80
2019-03-01T13:28:35.918Z,3.70
2019-03-01T13:31:03.350Z,3.57
2019-03-01T13:33:30.863Z,3.43
2019-03-01T13:36:00.049Z,3.47
2019-03-01T13:38:30.360Z,3.33
2019-03-01T13:40:58.837Z,3.33
2019-03-01T13:43:27.398Z,3.70
2019-03-01T13:45:55.246Z,3.20
2019-03-01T13:48:22.894Z,4.10
2019-03-01T13:50:50.718Z,3.60
2019-03-01T13:53:18.111Z,3.10
2019-03-01T13:55:45.527Z,5.80
2019-03-01T13:58:12.926Z,6.90
2019-03-01T14:00:45.646Z,5.97
2019-03-01T14:03:12.490Z,4.87
2019-03-01T14:05:39.875Z,4.70
2019-03-01T14:08:09.332Z,3.50
2019-03-01T14:10:38.503Z,3.60
2019-03-01T14:13:05.900Z,3.73
2019-03-01T14:15:35.010Z,3.60
2019-03-01T14:18:02.561Z,3.50
2019-03-01T14:20:29.949Z,4.90
2019-03-01T14:22:57.338Z,3.40
2019-03-01T14:25:24.758Z,3.30
2019-03-01T14:27:52.960Z,3.83
2019-03-01T14:30:20.446Z,4.40
2019-03-01T14:32:47.904Z,3.47
2019-03-01T14:35:15.286Z,3.27
2019-03-01T14:37:42.669Z,4.10
2019-03-01T14:40:11.150Z,2.57
2019-03-01T14:42:38.529Z,2.93
2019-03-01T14:45:12.310Z,2.40
2019-03-01T14:47:39.835Z,4.80
2019-03-01T14:50:08.822Z,4.20
2019-03-01T14:52:36.333Z,4.70
2019-03-01T14:55:04.347Z,3.70
2019-03-01T14:57:38.734Z,3.67
2019-03-01T15:00:19.230Z,3.37
2019-03-01T15:02:51.735Z,4.30
2019-03-01T15:05:19.881Z,3.67
2019-03-01T15:07:47.409Z,4.30
2019-03-01T15:10:15.627Z,4.60
2019-03-01T15:12:43.038Z,2.77
2019-03-01T15:15:11.282Z,5.63
2019-03-01T15:17:38.930Z,4.20
2019-03-01T15:20:09.132Z,5.77
2019-03-01T15:22:36.518Z,14.00
2019-03-01T15:25:04.225Z,11.10
2019-03-01T15:27:31.634Z,6.87
2019-03-01T15:29:59.036Z,6.67
2019-03-01T15:32:26.470Z,5.27
2019-03-01T15:34:53.848Z,6.70
2019-03-01T15:37:21.227Z,5.00
2019-03-01T15:39:51.277Z,3.43
2019-03-01T15:42:20.986Z,3.13
2019-03-01T15:44:47.265Z,5.73
2019-03-01T15:47:14.838Z,6.00
2019-03-01T15:49:42.285Z,6.80
2019-03-01T15:52:10.700Z,4.00
2019-03-01T15:54:38.900Z,5.40
2019-03-01T15:57:06.286Z,6.70
2019-03-01T15:59:33.674Z,6.27
2019-03-01T16:02:01.113Z,6.83
2019-03-01T16:04:30.383Z,6.80
2019-03-01T16:06:57.705Z,5.50
2019-03-01T16:09:26.396Z,6.20
2019-03-01T16:11:56.356Z,11.40
2019-03-01T16:14:24.208Z,7.30
2019-03-01T16:16:52.447Z,7.20
2019-03-01T16:19:19.860Z,5.30
2019-03-01T16:21:47.257Z,4.50
2019-03-01T16:24:14.691Z,4.43
2019-03-01T16:26:42.089Z,5.10
2019-03-01T16:29:09.486Z,6.50
2019-03-01T16:31:36.929Z,7.17
2019-03-01T16:34:05.210Z,6.47
2019-03-01T16:36:35.827Z,7.27
2019-03-01T16:39:05.481Z,5.43
2019-03-01T16:41:32.883Z,4.70
2019-03-01T16:44:01.327Z,4.60
2019-03-01T16:46:31.326Z,4.90
2019-03-01T16:48:59.397Z,5.77
2019-03-01T16:51:26.800Z,5.30
2019-03-01T16:53:54.254Z,4.40
2019-03-01T16:56:21.691Z,4.80
2019-03-01T16:58:49.084Z,3.67
2019-03-01T17:01:16.649Z,3.70
2019-03-01T17:03:44.054Z,3.60
2019-03-01T17:06:13.787Z,4.27
2019-03-01T17:08:40.706Z,6.17
2019-03-01T17:11:08.102Z,7.40
2019-03-01T17:13:35.478Z,9.83
2019-03-01T17:16:02.965Z,9.03
2019-03-01T17:18:30.342Z,6.90
2019-03-01T17:20:57.734Z,6.97
2019-03-01T17:23:25.177Z,7.33
2019-03-01T17:25:52.594Z,7.07
2019-03-01T17:28:23.430Z,7.07
2019-03-01T17:30:50.804Z,8.13
2019-03-01T17:33:18.530Z,9.57
2019-03-01T17:35:45.902Z,10.27
2019-03-01T17:38:13.559Z,9.70
2019-03-01T17:40:40.952Z,8.83
2019-03-01T17:43:08.340Z,6.47
2019-03-01T17:45:35.755Z,7.50
2019-03-01T17:48:03.430Z,5.03
2019-03-01T17:50:30.842Z,5.00
2019-03-01T17:52:58.403Z,5.33
2019-03-01T17:55:25.802Z,4.30
2019-03-01T17:57:53.185Z,5.57
2019-03-01T18:00:26.671Z,7.17
2019-03-01T18:02:54.174Z,6.73
2019-03-01T18:05:21.557Z,8.23
2019-03-01T18:07:49.188Z,11.83
2019-03-01T18:10:16.706Z,9.20
2019-03-01T18:12:44.099Z,9.40
2019-03-01T18:15:12.373Z,10.37
2019-03-01T18:17:40.564Z,14.60
2019-03-01T18:20:08.507Z,22.73
2019-03-01T18:22:35.929Z,10.60
2019-03-01T18:25:04.215Z,12.07
2019-03-01T18:27:31.878Z,8.97
2019-03-01T18:29:59.314Z,9.53
2019-03-01T18:32:26.748Z,9.53
2019-03-01T18:34:54.129Z,9.40
2019-03-01T18:37:21.617Z,8.00
2019-03-01T18:39:49.018Z,11.30
2019-03-01T18:42:16.420Z,12.20
2019-03-01T18:44:44.026Z,10.63
2019-03-01T18:47:11.589Z,11.97
2019-03-01T18:49:39.049Z,11.43
2019-03-01T18:52:06.504Z,12.93
2019-03-01T18:54:35.809Z,10.90
2019-03-01T18:57:03.644Z,10.80
2019-03-01T18:59:32.025Z,11.70
2019-03-01T19:02:00.833Z,11.93
2019-03-01T19:04:29.626Z,11.17
2019-03-01T19:06:57.455Z,8.53
2019-03-01T19:09:24.879Z,7.67
2019-03-01T19:11:52.282Z,9.67
2019-03-01T19:14:19.815Z,11.00
2019-03-01T19:16:47.217Z,8.30
2019-03-01T19:19:14.599Z,8.30
2019-03-01T19:21:42.040Z,7.03
2019-03-01T19:24:09.465Z,9.20
2019-03-01T19:26:37.370Z,9.17
2019-03-01T19:29:04.875Z,8.90
2019-03-01T19:31:32.263Z,9.83
2019-03-01T19:33:59.655Z,11.93
2019-03-01T19:36:27.110Z,9.30
2019-03-01T19:38:56.805Z,12.10
2019-03-01T19:41:23.793Z,12.77
2019-03-01T19:43:57.367Z,12.80
2019-03-01T19:46:20.534Z,9.73
2019-03-01T19:48:48.226Z,12.10
2019-03-01T19:51:15.690Z,12.67
2019-03-01T19:53:43.093Z,13.00
2019-03-01T19:56:11.059Z,8.73
2019-03-01T19:58:38.526Z,11.67
2019-03-01T20:01:05.914Z,10.33
2019-03-01T20:03:33.296Z,12.33
2019-03-01T20:06:00.734Z,11.10
2019-03-01T20:08:29.818Z,13.80
2019-03-01T20:10:57.338Z,10.50
2019-03-01T20:13:24.780Z,11.50
2019-03-01T20:15:52.180Z,13.73
2019-03-01T20:18:19.582Z,11.20
2019-03-01T20:20:47.012Z,13.10
2019-03-01T20:23:14.434Z,14.30
2019-03-01T20:25:41.866Z,13.60
2019-03-01T20:28:11.552Z,12.93
2019-03-01T20:30:38.953Z,14.77
2019-03-01T20:33:06.404Z,12.90
2019-03-01T20:35:33.859Z,11.90
2019-03-01T20:38:04.303Z,11.00
2019-03-01T20:40:30.451Z,10.97
2019-03-01T20:43:01.296Z,13.40
2019-03-01T20:45:29.990Z,11.57
2019-03-01T20:47:56.756Z,12.03
2019-03-01T20:50:25.074Z,10.53
2019-03-01T20:52:52.576Z,13.70
2019-03-01T20:55:20.039Z,13.60
2019-03-01T20:57:47.631Z,13.00
2019-03-01T21:00:15.575Z,13.20
2019-03-01T21:02:42.978Z,12.23
2019-03-01T21:05:10.950Z,10.30
2019-03-01T21:07:38.490Z,16.10
2019-03-01T21:10:12.584Z,12.50
2019-03-01T21:12:38.777Z,11.40
2019-03-01T21:15:06.695Z,13.57
2019-03-01T21:17:34.175Z,11.43
2019-03-01T21:20:01.659Z,12.33
2019-03-01T21:22:29.113Z,11.93
2019-03-01T21:24:59.430Z,10.00
2019-03-01T21:27:26.730Z,9.83
2019-03-01T21:29:54.239Z,11.93
2019-03-01T21:32:22.919Z,13.30
2019-03-01T21:34:50.516Z,10.60
2019-03-01T21:37:17.922Z,10.23
2019-03-01T21:39:45.327Z,11.50
2019-03-01T21:42:12.769Z,15.83
2019-03-01T21:44:42.711Z,12.43
2019-03-01T21:47:12.146Z,12.40
2019-03-01T21:49:38.979Z,13.60
2019-03-01T21:52:06.696Z,12.70
2019-03-01T21:54:34.127Z,12.90
2019-03-01T21:57:01.840Z,11.10
2019-03-01T21:59:29.278Z,13.23
2019-03-01T22:01:56.720Z,10.20
2019-03-01T22:04:24.155Z,8.77
2019-03-01T22:06:51.550Z,9.80
2019-03-01T22:09:20.649Z,11.33
2019-03-01T22:11:49.258Z,12.90
2019-03-01T22:14:17.368Z,9.17
2019-03-01T22:16:44.754Z,11.77
2019-03-01T22:19:12.189Z,10.40
2019-03-01T22:21:39.576Z,8.00
2019-03-01T22:24:07.001Z,9.70
2019-03-01T22:26:34.490Z,8.90
2019-03-01T22:29:01.787Z,11.37
2019-03-01T22:31:29.190Z,10.00
2019-03-01T22:33:57.120Z,11.07
2019-03-01T22:36:24.520Z,10.30
2019-03-01T22:38:51.910Z,8.83
2019-03-01T22:41:19.227Z,7.60
2019-03-01T22:43:46.625Z,8.50
2019-03-01T22:46:14.024Z,10.77
2019-03-01T22:48:47.369Z,13.33
2019-03-01T22:51:14.386Z,11.27
2019-03-01T22:53:42.122Z,8.93
2019-03-01T22:56:11.968Z,9.43
2019-03-01T22:58:39.127Z,8.30
2019-03-01T23:01:16.921Z,10.07
2019-03-01T23:03:54.918Z,10.57
2019-03-01T23:06:22.331Z,9.53
2019-03-01T23:08:49.721Z,9.10
2019-03-01T23:11:17.118Z,9.70
2019-03-01T23:13:44.585Z,9.57
2019-03-01T23:16:11.974Z,7.93
2019-03-01T23:18:40.518Z,8.60
2019-03-01T23:21:08.627Z,9.40
2019-03-01T23:23:36.012Z,10.10
2019-03-01T23:26:03.407Z,13.30
2019-03-01T23:28:31.046Z,10.30
2019-03-01T23:31:00.557Z,10.80
2019-03-01T23:33:31.274Z,10.67
2019-03-01T23:35:57.000Z,10.80
2019-03-01T23:38:24.388Z,8.57
2019-03-01T23:40:51.773Z,7.70
2019-03-01T23:43:19.221Z,8.97
2019-03-01T23:45:49.979Z,7.50
2019-03-01T23:48:16.525Z,6.70
2019-03-01T23:50:43.955Z,7.50
2019-03-01T23:53:11.360Z,8.67
2019-03-01T23:55:38.752Z,10.27
2019-03-01T23:58:06.746Z,10.70
